Newfields, New Hampshire
Current Conditions -  °F | °C
As of 10:58 AM on Sunday 23 Nov 2014 (Local Time) from KPSM Reporting Station
Few Clouds Few Clouds  
Wind Chill: 54°   Ceiling: Unl
Heat Index: 54°   Visibility: 10mi
Dew Point: 38°   Wind: 9mph
Humidity: 55%   Direction: 240°WSW
Pressure: 30.08"   Gusts: NA
Location:  43.04°N, 70.94°W
Report Text: KPSM 231558Z 24008KT 10SM FEW120 FEW250 12/03 A3008 RMK AO2A SLP190 T01220033
Loading
Personal Weather Stations






























Interactive Weather Map New forecast layout! Learn more

10-Day Weather Forecast

Advertisements
Track Severe Weather on mobile